sensor_id;sensor_type;location;lat;lon;timestamp;P1;durP1;ratioP1;P2;durP2;ratioP2
56481;SDS011;42384;45.186;19.958;2023-03-14T00:00:38;14.83;;;6.83;;
56481;SDS011;42384;45.186;19.958;2023-03-14T00:03:04;11.60;;;7.10;;
56481;SDS011;42384;45.186;19.958;2023-03-14T00:05:30;14.35;;;7.63;;
56481;SDS011;42384;45.186;19.958;2023-03-14T00:07:57;19.92;;;8.82;;
56481;SDS011;42384;45.186;19.958;2023-03-14T00:10:23;10.23;;;6.33;;
56481;SDS011;42384;45.186;19.958;2023-03-14T00:12:49;16.67;;;7.28;;
56481;SDS011;42384;45.186;19.958;2023-03-14T00:15:15;14.33;;;7.37;;
56481;SDS011;42384;45.186;19.958;2023-03-14T00:17:42;9.93;;;6.00;;
56481;SDS011;42384;45.186;19.958;2023-03-14T00:20:09;12.07;;;6.80;;
56481;SDS011;42384;45.186;19.958;2023-03-14T00:22:37;10.82;;;6.22;;
56481;SDS011;42384;45.186;19.958;2023-03-14T00:27:29;12.93;;;6.45;;
56481;SDS011;42384;45.186;19.958;2023-03-14T00:29:55;17.97;;;9.70;;
56481;SDS011;42384;45.186;19.958;2023-03-14T00:32:21;11.30;;;6.30;;
56481;SDS011;42384;45.186;19.958;2023-03-14T00:34:48;12.25;;;5.53;;
56481;SDS011;42384;45.186;19.958;2023-03-14T00:37:14;14.57;;;6.72;;
56481;SDS011;42384;45.186;19.958;2023-03-14T00:39:40;13.30;;;5.88;;
56481;SDS011;42384;45.186;19.958;2023-03-14T00:42:07;12.03;;;6.10;;
56481;SDS011;42384;45.186;19.958;2023-03-14T00:44:33;11.52;;;5.50;;
56481;SDS011;42384;45.186;19.958;2023-03-14T00:46:59;11.73;;;6.32;;
56481;SDS011;42384;45.186;19.958;2023-03-14T00:49:25;9.65;;;5.72;;
56481;SDS011;42384;45.186;19.958;2023-03-14T00:51:51;9.75;;;5.53;;
56481;SDS011;42384;45.186;19.958;2023-03-14T00:54:18;12.83;;;6.07;;
56481;SDS011;42384;45.186;19.958;2023-03-14T00:56:44;13.95;;;5.82;;
56481;SDS011;42384;45.186;19.958;2023-03-14T00:59:11;13.60;;;5.83;;
56481;SDS011;42384;45.186;19.958;2023-03-14T01:01:38;9.32;;;5.53;;
56481;SDS011;42384;45.186;19.958;2023-03-14T01:06:30;10.88;;;5.43;;
56481;SDS011;42384;45.186;19.958;2023-03-14T01:08:57;9.27;;;5.03;;
56481;SDS011;42384;45.186;19.958;2023-03-14T01:11:24;9.82;;;5.45;;
56481;SDS011;42384;45.186;19.958;2023-03-14T01:13:51;10.20;;;4.95;;
56481;SDS011;42384;45.186;19.958;2023-03-14T01:16:18;9.43;;;4.95;;
56481;SDS011;42384;45.186;19.958;2023-03-14T01:18:44;10.95;;;5.68;;
56481;SDS011;42384;45.186;19.958;2023-03-14T01:24:07;7.93;;;4.72;;
56481;SDS011;42384;45.186;19.958;2023-03-14T01:26:34;11.63;;;6.33;;
56481;SDS011;42384;45.186;19.958;2023-03-14T01:31:27;11.52;;;5.80;;
56481;SDS011;42384;45.186;19.958;2023-03-14T01:33:53;13.70;;;6.32;;
56481;SDS011;42384;45.186;19.958;2023-03-14T01:36:19;13.90;;;6.10;;
56481;SDS011;42384;45.186;19.958;2023-03-14T01:38:45;10.75;;;5.78;;
56481;SDS011;42384;45.186;19.958;2023-03-14T01:41:13;10.47;;;5.57;;
56481;SDS011;42384;45.186;19.958;2023-03-14T01:43:40;10.27;;;5.57;;
56481;SDS011;42384;45.186;19.958;2023-03-14T01:50:59;11.77;;;5.57;;
56481;SDS011;42384;45.186;19.958;2023-03-14T01:55:53;10.32;;;5.18;;
56481;SDS011;42384;45.186;19.958;2023-03-14T01:58:21;11.70;;;5.93;;
56481;SDS011;42384;45.186;19.958;2023-03-14T02:03:16;10.55;;;6.00;;
56481;SDS011;42384;45.186;19.958;2023-03-14T02:05:42;9.38;;;5.70;;
56481;SDS011;42384;45.186;19.958;2023-03-14T02:08:10;9.23;;;5.70;;
56481;SDS011;42384;45.186;19.958;2023-03-14T02:10:41;15.63;;;7.53;;
56481;SDS011;42384;45.186;19.958;2023-03-14T02:13:08;11.80;;;6.25;;
56481;SDS011;42384;45.186;19.958;2023-03-14T02:15:35;10.40;;;5.55;;
56481;SDS011;42384;45.186;19.958;2023-03-14T02:18:02;11.45;;;6.28;;
56481;SDS011;42384;45.186;19.958;2023-03-14T02:22:55;10.95;;;5.93;;
56481;SDS011;42384;45.186;19.958;2023-03-14T02:27:53;10.93;;;5.55;;
56481;SDS011;42384;45.186;19.958;2023-03-14T02:30:21;10.23;;;5.60;;
56481;SDS011;42384;45.186;19.958;2023-03-14T02:33:06;9.80;;;5.22;;
56481;SDS011;42384;45.186;19.958;2023-03-14T02:35:35;10.05;;;6.00;;
56481;SDS011;42384;45.186;19.958;2023-03-14T02:38:19;10.82;;;5.50;;
56481;SDS011;42384;45.186;19.958;2023-03-14T02:40:47;9.77;;;5.18;;
56481;SDS011;42384;45.186;19.958;2023-03-14T02:43:13;11.82;;;5.85;;
56481;SDS011;42384;45.186;19.958;2023-03-14T02:45:47;12.60;;;5.50;;
56481;SDS011;42384;45.186;19.958;2023-03-14T02:48:26;9.95;;;4.95;;
56481;SDS011;42384;45.186;19.958;2023-03-14T02:50:54;9.27;;;4.50;;
56481;SDS011;42384;45.186;19.958;2023-03-14T02:53:24;10.15;;;5.00;;
56481;SDS011;42384;45.186;19.958;2023-03-14T02:55:50;8.75;;;4.70;;
56481;SDS011;42384;45.186;19.958;2023-03-14T02:58:17;9.97;;;4.40;;
56481;SDS011;42384;45.186;19.958;2023-03-14T03:00:43;10.73;;;5.18;;
56481;SDS011;42384;45.186;19.958;2023-03-14T03:03:10;9.37;;;4.53;;
56481;SDS011;42384;45.186;19.958;2023-03-14T03:05:36;7.40;;;4.80;;
56481;SDS011;42384;45.186;19.958;2023-03-14T03:08:03;9.05;;;5.43;;
56481;SDS011;42384;45.186;19.958;2023-03-14T03:10:30;9.25;;;4.53;;
56481;SDS011;42384;45.186;19.958;2023-03-14T03:12:56;8.45;;;4.15;;
56481;SDS011;42384;45.186;19.958;2023-03-14T03:15:22;7.87;;;4.63;;
56481;SDS011;42384;45.186;19.958;2023-03-14T03:17:49;8.07;;;4.47;;
56481;SDS011;42384;45.186;19.958;2023-03-14T03:20:15;7.68;;;4.35;;
56481;SDS011;42384;45.186;19.958;2023-03-14T03:22:42;8.80;;;4.00;;
56481;SDS011;42384;45.186;19.958;2023-03-14T03:25:08;9.23;;;5.25;;
56481;SDS011;42384;45.186;19.958;2023-03-14T03:27:35;7.55;;;4.93;;
56481;SDS011;42384;45.186;19.958;2023-03-14T03:30:03;8.75;;;4.90;;
56481;SDS011;42384;45.186;19.958;2023-03-14T03:32:29;7.68;;;4.13;;
56481;SDS011;42384;45.186;19.958;2023-03-14T03:34:55;8.80;;;4.68;;
56481;SDS011;42384;45.186;19.958;2023-03-14T03:37:22;7.93;;;4.10;;
56481;SDS011;42384;45.186;19.958;2023-03-14T03:39:50;10.50;;;4.85;;
56481;SDS011;42384;45.186;19.958;2023-03-14T03:42:17;8.48;;;4.72;;
56481;SDS011;42384;45.186;19.958;2023-03-14T03:44:43;10.23;;;4.78;;
56481;SDS011;42384;45.186;19.958;2023-03-14T03:47:09;7.90;;;4.33;;
56481;SDS011;42384;45.186;19.958;2023-03-14T03:49:35;9.38;;;5.25;;
56481;SDS011;42384;45.186;19.958;2023-03-14T03:52:02;10.10;;;4.78;;
56481;SDS011;42384;45.186;19.958;2023-03-14T03:54:28;8.00;;;3.87;;
56481;SDS011;42384;45.186;19.958;2023-03-14T03:56:54;10.30;;;3.90;;
56481;SDS011;42384;45.186;19.958;2023-03-14T03:59:21;9.30;;;4.50;;
56481;SDS011;42384;45.186;19.958;2023-03-14T04:01:47;9.15;;;4.35;;
56481;SDS011;42384;45.186;19.958;2023-03-14T04:04:13;7.10;;;3.80;;
56481;SDS011;42384;45.186;19.958;2023-03-14T04:06:40;6.40;;;3.88;;
56481;SDS011;42384;45.186;19.958;2023-03-14T04:09:07;11.27;;;4.70;;
56481;SDS011;42384;45.186;19.958;2023-03-14T04:14:00;10.93;;;4.50;;
56481;SDS011;42384;45.186;19.958;2023-03-14T04:16:26;13.03;;;4.93;;
56481;SDS011;42384;45.186;19.958;2023-03-14T04:18:52;11.27;;;5.00;;
56481;SDS011;42384;45.186;19.958;2023-03-14T04:21:19;9.17;;;5.07;;
56481;SDS011;42384;45.186;19.958;2023-03-14T04:23:45;8.18;;;5.07;;
56481;SDS011;42384;45.186;19.958;2023-03-14T04:26:11;11.33;;;5.83;;
56481;SDS011;42384;45.186;19.958;2023-03-14T04:28:37;9.13;;;4.90;;
56481;SDS011;42384;45.186;19.958;2023-03-14T04:31:08;10.63;;;5.43;;
56481;SDS011;42384;45.186;19.958;2023-03-14T04:33:34;9.57;;;4.97;;
56481;SDS011;42384;45.186;19.958;2023-03-14T04:36:02;9.13;;;4.95;;
56481;SDS011;42384;45.186;19.958;2023-03-14T04:38:28;9.20;;;5.32;;
56481;SDS011;42384;45.186;19.958;2023-03-14T04:40:55;13.23;;;5.07;;
56481;SDS011;42384;45.186;19.958;2023-03-14T04:43:21;10.77;;;5.33;;
56481;SDS011;42384;45.186;19.958;2023-03-14T04:45:47;10.05;;;5.55;;
56481;SDS011;42384;45.186;19.958;2023-03-14T04:48:13;11.57;;;5.70;;
56481;SDS011;42384;45.186;19.958;2023-03-14T04:50:40;11.63;;;5.43;;
56481;SDS011;42384;45.186;19.958;2023-03-14T04:53:06;11.73;;;5.40;;
56481;SDS011;42384;45.186;19.958;2023-03-14T04:55:32;10.35;;;5.75;;
56481;SDS011;42384;45.186;19.958;2023-03-14T05:00:25;10.90;;;5.43;;
56481;SDS011;42384;45.186;19.958;2023-03-14T05:02:52;12.30;;;5.38;;
56481;SDS011;42384;45.186;19.958;2023-03-14T05:05:18;11.60;;;5.82;;
56481;SDS011;42384;45.186;19.958;2023-03-14T05:07:44;12.25;;;6.15;;
56481;SDS011;42384;45.186;19.958;2023-03-14T05:10:11;10.90;;;5.47;;
56481;SDS011;42384;45.186;19.958;2023-03-14T05:12:37;11.18;;;6.03;;
56481;SDS011;42384;45.186;19.958;2023-03-14T05:15:04;13.48;;;5.78;;
56481;SDS011;42384;45.186;19.958;2023-03-14T05:17:32;11.60;;;6.18;;
56481;SDS011;42384;45.186;19.958;2023-03-14T05:19:58;10.10;;;6.40;;
56481;SDS011;42384;45.186;19.958;2023-03-14T05:22:24;11.63;;;6.47;;
56481;SDS011;42384;45.186;19.958;2023-03-14T05:24:50;11.65;;;6.63;;
56481;SDS011;42384;45.186;19.958;2023-03-14T05:27:18;11.07;;;6.20;;
56481;SDS011;42384;45.186;19.958;2023-03-14T05:29:45;11.33;;;6.03;;
56481;SDS011;42384;45.186;19.958;2023-03-14T05:32:12;12.38;;;6.10;;
56481;SDS011;42384;45.186;19.958;2023-03-14T05:34:39;12.20;;;6.70;;
56481;SDS011;42384;45.186;19.958;2023-03-14T05:37:05;13.48;;;6.47;;
56481;SDS011;42384;45.186;19.958;2023-03-14T05:39:32;12.80;;;6.25;;
56481;SDS011;42384;45.186;19.958;2023-03-14T05:41:58;13.73;;;6.30;;
56481;SDS011;42384;45.186;19.958;2023-03-14T05:44:24;11.40;;;6.57;;
56481;SDS011;42384;45.186;19.958;2023-03-14T05:46:50;13.37;;;6.20;;
56481;SDS011;42384;45.186;19.958;2023-03-14T05:49:17;13.93;;;6.97;;
56481;SDS011;42384;45.186;19.958;2023-03-14T05:51:43;12.48;;;6.22;;
56481;SDS011;42384;45.186;19.958;2023-03-14T05:54:09;11.27;;;5.95;;
56481;SDS011;42384;45.186;19.958;2023-03-14T05:56:36;11.50;;;6.73;;
56481;SDS011;42384;45.186;19.958;2023-03-14T05:59:02;9.87;;;5.83;;
56481;SDS011;42384;45.186;19.958;2023-03-14T06:01:29;10.83;;;5.93;;
56481;SDS011;42384;45.186;19.958;2023-03-14T06:03:55;16.00;;;6.85;;
56481;SDS011;42384;45.186;19.958;2023-03-14T06:06:22;11.67;;;6.40;;
56481;SDS011;42384;45.186;19.958;2023-03-14T06:08:48;13.37;;;6.80;;
56481;SDS011;42384;45.186;19.958;2023-03-14T06:11:15;13.38;;;7.32;;
56481;SDS011;42384;45.186;19.958;2023-03-14T06:13:41;14.80;;;6.38;;
56481;SDS011;42384;45.186;19.958;2023-03-14T06:16:07;12.13;;;6.97;;
56481;SDS011;42384;45.186;19.958;2023-03-14T06:18:34;13.25;;;7.13;;
56481;SDS011;42384;45.186;19.958;2023-03-14T06:21:00;12.00;;;7.22;;
56481;SDS011;42384;45.186;19.958;2023-03-14T06:23:26;12.75;;;6.93;;
56481;SDS011;42384;45.186;19.958;2023-03-14T06:25:52;11.30;;;6.10;;
56481;SDS011;42384;45.186;19.958;2023-03-14T06:28:19;12.73;;;6.45;;
56481;SDS011;42384;45.186;19.958;2023-03-14T06:30:45;12.30;;;6.28;;
56481;SDS011;42384;45.186;19.958;2023-03-14T06:33:11;15.87;;;7.20;;
56481;SDS011;42384;45.186;19.958;2023-03-14T06:35:37;14.20;;;6.50;;
56481;SDS011;42384;45.186;19.958;2023-03-14T06:38:04;13.57;;;6.37;;
56481;SDS011;42384;45.186;19.958;2023-03-14T06:40:30;13.95;;;6.60;;
56481;SDS011;42384;45.186;19.958;2023-03-14T06:42:56;11.75;;;5.78;;
56481;SDS011;42384;45.186;19.958;2023-03-14T06:45:23;12.10;;;6.67;;
56481;SDS011;42384;45.186;19.958;2023-03-14T06:47:49;14.30;;;6.22;;
56481;SDS011;42384;45.186;19.958;2023-03-14T06:50:16;13.50;;;6.73;;
56481;SDS011;42384;45.186;19.958;2023-03-14T06:52:42;13.70;;;6.67;;
56481;SDS011;42384;45.186;19.958;2023-03-14T06:55:13;12.85;;;6.57;;
56481;SDS011;42384;45.186;19.958;2023-03-14T06:57:39;25.77;;;6.65;;
56481;SDS011;42384;45.186;19.958;2023-03-14T07:00:07;14.77;;;7.03;;
56481;SDS011;42384;45.186;19.958;2023-03-14T07:02:33;13.93;;;6.78;;
56481;SDS011;42384;45.186;19.958;2023-03-14T07:04:59;16.60;;;7.40;;
56481;SDS011;42384;45.186;19.958;2023-03-14T07:07:26;18.65;;;7.13;;
56481;SDS011;42384;45.186;19.958;2023-03-14T07:09:52;18.05;;;6.88;;
56481;SDS011;42384;45.186;19.958;2023-03-14T07:12:18;14.50;;;7.27;;
56481;SDS011;42384;45.186;19.958;2023-03-14T07:14:44;14.98;;;7.13;;
56481;SDS011;42384;45.186;19.958;2023-03-14T07:17:11;16.83;;;7.07;;
56481;SDS011;42384;45.186;19.958;2023-03-14T07:19:37;19.40;;;7.80;;
56481;SDS011;42384;45.186;19.958;2023-03-14T07:22:06;13.30;;;7.63;;
56481;SDS011;42384;45.186;19.958;2023-03-14T07:24:32;15.27;;;7.75;;
56481;SDS011;42384;45.186;19.958;2023-03-14T07:26:58;13.33;;;7.03;;
56481;SDS011;42384;45.186;19.958;2023-03-14T07:29:25;16.13;;;6.88;;
56481;SDS011;42384;45.186;19.958;2023-03-14T07:31:51;15.63;;;7.63;;
56481;SDS011;42384;45.186;19.958;2023-03-14T07:34:17;15.10;;;7.40;;
56481;SDS011;42384;45.186;19.958;2023-03-14T07:36:44;15.57;;;7.50;;
56481;SDS011;42384;45.186;19.958;2023-03-14T07:39:10;13.63;;;6.27;;
56481;SDS011;42384;45.186;19.958;2023-03-14T07:41:37;20.17;;;6.32;;
56481;SDS011;42384;45.186;19.958;2023-03-14T07:44:03;12.80;;;6.43;;
56481;SDS011;42384;45.186;19.958;2023-03-14T07:46:29;15.33;;;6.77;;
56481;SDS011;42384;45.186;19.958;2023-03-14T07:48:56;18.25;;;6.72;;
56481;SDS011;42384;45.186;19.958;2023-03-14T07:51:22;15.50;;;7.17;;
56481;SDS011;42384;45.186;19.958;2023-03-14T07:53:48;14.45;;;6.30;;
56481;SDS011;42384;45.186;19.958;2023-03-14T07:56:14;18.07;;;6.77;;
56481;SDS011;42384;45.186;19.958;2023-03-14T07:58:40;14.53;;;7.23;;
56481;SDS011;42384;45.186;19.958;2023-03-14T08:01:07;14.10;;;6.90;;
56481;SDS011;42384;45.186;19.958;2023-03-14T08:03:33;17.77;;;7.10;;
56481;SDS011;42384;45.186;19.958;2023-03-14T08:05:59;15.90;;;7.77;;
56481;SDS011;42384;45.186;19.958;2023-03-14T08:08:25;23.60;;;8.67;;
56481;SDS011;42384;45.186;19.958;2023-03-14T08:10:52;15.00;;;8.20;;
56481;SDS011;42384;45.186;19.958;2023-03-14T08:13:18;12.63;;;7.30;;
56481;SDS011;42384;45.186;19.958;2023-03-14T08:15:47;18.60;;;7.90;;
56481;SDS011;42384;45.186;19.958;2023-03-14T08:18:14;19.33;;;7.55;;
56481;SDS011;42384;45.186;19.958;2023-03-14T08:20:40;16.67;;;7.37;;
56481;SDS011;42384;45.186;19.958;2023-03-14T08:23:06;21.60;;;7.60;;
56481;SDS011;42384;45.186;19.958;2023-03-14T08:25:32;16.77;;;7.40;;
56481;SDS011;42384;45.186;19.958;2023-03-14T08:27:59;26.52;;;9.40;;
56481;SDS011;42384;45.186;19.958;2023-03-14T08:30:25;12.77;;;6.65;;
56481;SDS011;42384;45.186;19.958;2023-03-14T08:32:51;17.85;;;7.18;;
56481;SDS011;42384;45.186;19.958;2023-03-14T08:35:18;24.13;;;8.83;;
56481;SDS011;42384;45.186;19.958;2023-03-14T08:37:44;23.13;;;10.55;;
56481;SDS011;42384;45.186;19.958;2023-03-14T08:40:11;14.07;;;5.77;;
56481;SDS011;42384;45.186;19.958;2023-03-14T08:42:38;13.13;;;6.70;;
56481;SDS011;42384;45.186;19.958;2023-03-14T08:45:04;16.00;;;7.32;;
56481;SDS011;42384;45.186;19.958;2023-03-14T08:47:31;19.33;;;7.47;;
56481;SDS011;42384;45.186;19.958;2023-03-14T08:49:57;27.70;;;9.80;;
56481;SDS011;42384;45.186;19.958;2023-03-14T08:52:23;21.33;;;8.10;;
56481;SDS011;42384;45.186;19.958;2023-03-14T08:54:49;19.50;;;8.23;;
56481;SDS011;42384;45.186;19.958;2023-03-14T08:57:16;14.82;;;6.72;;
56481;SDS011;42384;45.186;19.958;2023-03-14T08:59:42;20.63;;;7.03;;
56481;SDS011;42384;45.186;19.958;2023-03-14T09:02:10;14.82;;;7.07;;
56481;SDS011;42384;45.186;19.958;2023-03-14T09:04:37;13.30;;;7.57;;
56481;SDS011;42384;45.186;19.958;2023-03-14T09:07:03;13.30;;;7.68;;
56481;SDS011;42384;45.186;19.958;2023-03-14T09:09:29;14.57;;;7.10;;
56481;SDS011;42384;45.186;19.958;2023-03-14T09:11:56;17.17;;;8.00;;
56481;SDS011;42384;45.186;19.958;2023-03-14T09:14:23;15.75;;;7.55;;
56481;SDS011;42384;45.186;19.958;2023-03-14T09:16:49;17.95;;;7.40;;
56481;SDS011;42384;45.186;19.958;2023-03-14T09:19:16;16.27;;;7.90;;
56481;SDS011;42384;45.186;19.958;2023-03-14T09:21:42;13.73;;;7.80;;
56481;SDS011;42384;45.186;19.958;2023-03-14T09:24:08;12.38;;;7.55;;
56481;SDS011;42384;45.186;19.958;2023-03-14T09:26:35;14.10;;;6.90;;
56481;SDS011;42384;45.186;19.958;2023-03-14T09:29:01;13.20;;;7.28;;
56481;SDS011;42384;45.186;19.958;2023-03-14T09:31:27;12.40;;;6.80;;
56481;SDS011;42384;45.186;19.958;2023-03-14T09:36:20;12.20;;;6.45;;
56481;SDS011;42384;45.186;19.958;2023-03-14T09:38:46;20.98;;;7.55;;
56481;SDS011;42384;45.186;19.958;2023-03-14T09:41:35;12.45;;;6.68;;
56481;SDS011;42384;45.186;19.958;2023-03-14T09:44:04;13.65;;;7.47;;
56481;SDS011;42384;45.186;19.958;2023-03-14T09:46:31;17.85;;;7.45;;
56481;SDS011;42384;45.186;19.958;2023-03-14T09:48:58;15.30;;;7.68;;
56481;SDS011;42384;45.186;19.958;2023-03-14T09:51:25;14.95;;;7.03;;
56481;SDS011;42384;45.186;19.958;2023-03-14T09:53:52;11.80;;;6.85;;
56481;SDS011;42384;45.186;19.958;2023-03-14T09:56:19;23.20;;;7.05;;
56481;SDS011;42384;45.186;19.958;2023-03-14T09:59:04;14.10;;;6.63;;
56481;SDS011;42384;45.186;19.958;2023-03-14T10:01:32;12.77;;;6.60;;
56481;SDS011;42384;45.186;19.958;2023-03-14T10:04:00;17.00;;;6.68;;
56481;SDS011;42384;45.186;19.958;2023-03-14T10:06:29;9.05;;;5.40;;
56481;SDS011;42384;45.186;19.958;2023-03-14T10:08:55;9.25;;;4.82;;
56481;SDS011;42384;45.186;19.958;2023-03-14T10:11:22;7.72;;;3.95;;
56481;SDS011;42384;45.186;19.958;2023-03-14T10:16:31;11.13;;;5.03;;
56481;SDS011;42384;45.186;19.958;2023-03-14T10:19:08;10.65;;;4.43;;
56481;SDS011;42384;45.186;19.958;2023-03-14T10:21:37;10.80;;;4.47;;
56481;SDS011;42384;45.186;19.958;2023-03-14T10:24:46;8.82;;;4.50;;
56481;SDS011;42384;45.186;19.958;2023-03-14T10:27:38;10.93;;;4.63;;
56481;SDS011;42384;45.186;19.958;2023-03-14T10:29:50;10.75;;;4.78;;
56481;SDS011;42384;45.186;19.958;2023-03-14T10:32:20;9.68;;;4.53;;
56481;SDS011;42384;45.186;19.958;2023-03-14T10:35:04;9.45;;;4.20;;
56481;SDS011;42384;45.186;19.958;2023-03-14T10:37:31;12.13;;;5.30;;
56481;SDS011;42384;45.186;19.958;2023-03-14T10:40:00;10.55;;;4.10;;
56481;SDS011;42384;45.186;19.958;2023-03-14T10:42:34;10.25;;;4.85;;
56481;SDS011;42384;45.186;19.958;2023-03-14T10:45:05;8.93;;;3.88;;
56481;SDS011;42384;45.186;19.958;2023-03-14T10:47:32;9.10;;;5.15;;
56481;SDS011;42384;45.186;19.958;2023-03-14T10:50:19;10.88;;;6.38;;
56481;SDS011;42384;45.186;19.958;2023-03-14T10:52:48;12.68;;;5.35;;
56481;SDS011;42384;45.186;19.958;2023-03-14T10:55:16;13.07;;;5.90;;
56481;SDS011;42384;45.186;19.958;2023-03-14T10:57:42;13.45;;;6.13;;
56481;SDS011;42384;45.186;19.958;2023-03-14T11:00:20;8.93;;;4.82;;
56481;SDS011;42384;45.186;19.958;2023-03-14T11:02:49;12.73;;;6.20;;
56481;SDS011;42384;45.186;19.958;2023-03-14T11:05:25;15.10;;;5.60;;
56481;SDS011;42384;45.186;19.958;2023-03-14T11:07:54;14.07;;;5.25;;
56481;SDS011;42384;45.186;19.958;2023-03-14T11:10:33;14.98;;;5.47;;
56481;SDS011;42384;45.186;19.958;2023-03-14T11:13:06;11.45;;;5.80;;
56481;SDS011;42384;45.186;19.958;2023-03-14T11:15:50;14.43;;;5.53;;
56481;SDS011;42384;45.186;19.958;2023-03-14T11:21:07;13.98;;;4.72;;
56481;SDS011;42384;45.186;19.958;2023-03-14T11:23:42;15.10;;;5.20;;
56481;SDS011;42384;45.186;19.958;2023-03-14T11:26:18;12.63;;;5.57;;
56481;SDS011;42384;45.186;19.958;2023-03-14T11:28:47;14.88;;;5.93;;
56481;SDS011;42384;45.186;19.958;2023-03-14T11:31:16;21.45;;;7.68;;
56481;SDS011;42384;45.186;19.958;2023-03-14T11:33:56;14.35;;;6.50;;
56481;SDS011;42384;45.186;19.958;2023-03-14T11:36:27;9.50;;;4.93;;
56481;SDS011;42384;45.186;19.958;2023-03-14T11:38:56;10.90;;;5.88;;
56481;SDS011;42384;45.186;19.958;2023-03-14T11:41:23;13.95;;;4.78;;
56481;SDS011;42384;45.186;19.958;2023-03-14T11:43:55;13.48;;;5.03;;
56481;SDS011;42384;45.186;19.958;2023-03-14T11:46:27;9.70;;;4.45;;
56481;SDS011;42384;45.186;19.958;2023-03-14T11:51:33;12.68;;;3.60;;
56481;SDS011;42384;45.186;19.958;2023-03-14T11:54:16;8.98;;;3.88;;
56481;SDS011;42384;45.186;19.958;2023-03-14T12:10:17;7.50;;;3.13;;
56481;SDS011;42384;45.186;19.958;2023-03-14T12:12:43;6.22;;;3.10;;
56481;SDS011;42384;45.186;19.958;2023-03-14T12:15:15;6.07;;;3.08;;
56481;SDS011;42384;45.186;19.958;2023-03-14T12:17:44;10.90;;;3.30;;
56481;SDS011;42384;45.186;19.958;2023-03-14T12:22:47;4.30;;;2.28;;
56481;SDS011;42384;45.186;19.958;2023-03-14T12:25:16;7.00;;;2.60;;
56481;SDS011;42384;45.186;19.958;2023-03-14T12:27:45;6.80;;;2.70;;
56481;SDS011;42384;45.186;19.958;2023-03-14T12:30:28;8.00;;;3.33;;
56481;SDS011;42384;45.186;19.958;2023-03-14T12:33:41;11.32;;;3.20;;
56481;SDS011;42384;45.186;19.958;2023-03-14T12:41:40;6.20;;;2.70;;
56481;SDS011;42384;45.186;19.958;2023-03-14T12:43:46;8.02;;;3.17;;
56481;SDS011;42384;45.186;19.958;2023-03-14T12:48:45;6.95;;;3.38;;
56481;SDS011;42384;45.186;19.958;2023-03-14T12:51:57;7.72;;;3.28;;
56481;SDS011;42384;45.186;19.958;2023-03-14T13:01:54;8.93;;;3.13;;
56481;SDS011;42384;45.186;19.958;2023-03-14T13:07:11;6.78;;;3.45;;
56481;SDS011;42384;45.186;19.958;2023-03-14T13:09:49;8.32;;;3.67;;
56481;SDS011;42384;45.186;19.958;2023-03-14T13:12:18;5.45;;;2.70;;
56481;SDS011;42384;45.186;19.958;2023-03-14T13:17:10;7.07;;;2.83;;
56481;SDS011;42384;45.186;19.958;2023-03-14T13:19:37;9.75;;;3.35;;
56481;SDS011;42384;45.186;19.958;2023-03-14T13:22:05;5.35;;;2.97;;
56481;SDS011;42384;45.186;19.958;2023-03-14T13:24:34;6.18;;;2.72;;
56481;SDS011;42384;45.186;19.958;2023-03-14T13:27:01;5.85;;;2.80;;
56481;SDS011;42384;45.186;19.958;2023-03-14T13:29:28;6.60;;;2.90;;
56481;SDS011;42384;45.186;19.958;2023-03-14T13:31:57;8.13;;;3.38;;
56481;SDS011;42384;45.186;19.958;2023-03-14T13:34:33;11.05;;;3.28;;
56481;SDS011;42384;45.186;19.958;2023-03-14T13:37:00;6.85;;;2.95;;
56481;SDS011;42384;45.186;19.958;2023-03-14T13:39:27;7.85;;;3.83;;
56481;SDS011;42384;45.186;19.958;2023-03-14T13:41:54;13.07;;;4.10;;
56481;SDS011;42384;45.186;19.958;2023-03-14T13:46:56;11.63;;;4.25;;
56481;SDS011;42384;45.186;19.958;2023-03-14T13:49:23;8.40;;;3.90;;
56481;SDS011;42384;45.186;19.958;2023-03-14T13:51:50;7.03;;;2.92;;
56481;SDS011;42384;45.186;19.958;2023-03-14T13:54:17;9.55;;;3.78;;
56481;SDS011;42384;45.186;19.958;2023-03-14T13:56:44;8.20;;;3.85;;
56481;SDS011;42384;45.186;19.958;2023-03-14T14:01:48;9.70;;;4.15;;
56481;SDS011;42384;45.186;19.958;2023-03-14T14:04:15;9.02;;;5.13;;
56481;SDS011;42384;45.186;19.958;2023-03-14T14:06:44;9.68;;;4.63;;
56481;SDS011;42384;45.186;19.958;2023-03-14T14:09:13;10.23;;;4.45;;
56481;SDS011;42384;45.186;19.958;2023-03-14T14:14:15;7.28;;;3.67;;
56481;SDS011;42384;45.186;19.958;2023-03-14T14:16:43;12.82;;;5.07;;
56481;SDS011;42384;45.186;19.958;2023-03-14T14:19:11;27.58;;;15.07;;
56481;SDS011;42384;45.186;19.958;2023-03-14T14:21:38;43.38;;;25.38;;
56481;SDS011;42384;45.186;19.958;2023-03-14T14:24:04;18.48;;;10.02;;
56481;SDS011;42384;45.186;19.958;2023-03-14T14:26:31;20.98;;;11.13;;
56481;SDS011;42384;45.186;19.958;2023-03-14T14:29:01;8.73;;;4.80;;
56481;SDS011;42384;45.186;19.958;2023-03-14T14:31:28;14.05;;;7.13;;
56481;SDS011;42384;45.186;19.958;2023-03-14T14:38:50;13.27;;;6.45;;
56481;SDS011;42384;45.186;19.958;2023-03-14T14:41:16;10.55;;;3.80;;
56481;SDS011;42384;45.186;19.958;2023-03-14T14:43:42;14.13;;;5.05;;
56481;SDS011;42384;45.186;19.958;2023-03-14T14:46:08;10.95;;;4.78;;
56481;SDS011;42384;45.186;19.958;2023-03-14T14:51:02;9.80;;;4.18;;
56481;SDS011;42384;45.186;19.958;2023-03-14T14:55:59;10.88;;;4.68;;
56481;SDS011;42384;45.186;19.958;2023-03-14T15:01:05;11.60;;;5.20;;
56481;SDS011;42384;45.186;19.958;2023-03-14T15:03:33;10.70;;;4.50;;
56481;SDS011;42384;45.186;19.958;2023-03-14T15:05:59;13.95;;;5.53;;
56481;SDS011;42384;45.186;19.958;2023-03-14T15:08:26;10.15;;;4.65;;
56481;SDS011;42384;45.186;19.958;2023-03-14T15:10:53;11.25;;;4.78;;
56481;SDS011;42384;45.186;19.958;2023-03-14T15:13:20;21.27;;;5.72;;
56481;SDS011;42384;45.186;19.958;2023-03-14T15:15:46;12.68;;;6.00;;
56481;SDS011;42384;45.186;19.958;2023-03-14T15:18:13;10.55;;;5.10;;
56481;SDS011;42384;45.186;19.958;2023-03-14T15:20:40;9.93;;;4.40;;
56481;SDS011;42384;45.186;19.958;2023-03-14T15:23:13;11.80;;;4.57;;
56481;SDS011;42384;45.186;19.958;2023-03-14T15:25:40;9.55;;;5.20;;
56481;SDS011;42384;45.186;19.958;2023-03-14T15:30:41;11.10;;;5.22;;
56481;SDS011;42384;45.186;19.958;2023-03-14T15:33:08;11.02;;;5.13;;
56481;SDS011;42384;45.186;19.958;2023-03-14T15:35:37;10.02;;;5.18;;
56481;SDS011;42384;45.186;19.958;2023-03-14T15:38:04;10.60;;;5.20;;
56481;SDS011;42384;45.186;19.958;2023-03-14T15:40:30;12.30;;;5.22;;
56481;SDS011;42384;45.186;19.958;2023-03-14T15:42:56;11.35;;;5.03;;
56481;SDS011;42384;45.186;19.958;2023-03-14T15:45:23;11.60;;;5.88;;
56481;SDS011;42384;45.186;19.958;2023-03-14T15:47:49;10.90;;;5.35;;
56481;SDS011;42384;45.186;19.958;2023-03-14T15:50:15;12.95;;;5.95;;
56481;SDS011;42384;45.186;19.958;2023-03-14T15:52:41;12.00;;;5.55;;
56481;SDS011;42384;45.186;19.958;2023-03-14T15:55:07;10.60;;;5.60;;
56481;SDS011;42384;45.186;19.958;2023-03-14T15:57:33;13.93;;;6.15;;
56481;SDS011;42384;45.186;19.958;2023-03-14T16:00:00;8.55;;;4.53;;
56481;SDS011;42384;45.186;19.958;2023-03-14T16:02:26;10.02;;;5.07;;
56481;SDS011;42384;45.186;19.958;2023-03-14T16:04:52;14.02;;;5.00;;
56481;SDS011;42384;45.186;19.958;2023-03-14T16:07:18;10.52;;;5.32;;
56481;SDS011;42384;45.186;19.958;2023-03-14T16:09:44;6.40;;;3.90;;